KPAH/PAH METAR and TAF weather

Enter ICAO airport designator
Station Type Date Time Source
KPAH METAR 2019/04/25 15:53 UTC NOAA

KPAH 251553Z 12006KT 8SM BKN007 OVC013 19/17 A2971 RMK AO2 RAB27E39 CIG 005V009 SLP056 P0001 T01940172


Station Type Date Time Source
KPAH Decoded METAR 2019/04/25 15:53 UTC NOAA

BARKLEY REGIONAL AIRPORT, KY, United States (KPAH) 37-03N 088-46W 118M
Apr 25, 2019 - 11:53 AM EDT / 2019.04.25 1553 UTC
Wind: from the ESE (120 degrees) at 7 MPH (6 KT):0
Visibility: 8 mile(s):0
Sky conditions: overcast
Precipitation last hour: 0.01 inches
Temperature: 66.9 F (19.4 C)
Dew Point: 63.0 F (17.2 C)
Relative Humidity: 87%
Pressure (altimeter): 29.71 in. Hg (1006 hPa)
ob: KPAH 251553Z 12006KT 8SM BKN007 OVC013 19/17 A2971 RMK AO2 RAB27E39 CIG 005V009 SLP056 P0001 T01940172
cycle: 16

Station Type Date Time Source
KPAH TAF 2019/04/25 12:42 UTC NOAA

TAF KPAH 251140Z 2512/2612 16003KT 5SM BR VCSH OVC060
TEMPO 2512/2515 3SM SHRA BR OVC035
FM251500 17008KT P6SM VCSH OVC035
FM252000 21010G19KT P6SM -SHRA VCTS BKN025CB
FM260000 31009KT 6SM -SHRA BR VCTS OVC015CB
FM260300 32010G17KT P6SM VCSH OVC011
FM260800 32012G20KT P6SM BKN015

Example: see airport list